createdAt,value
2019-01-02T00:00:06.688Z,6.80
2019-01-02T00:02:35.745Z,8.78
2019-01-02T00:05:05.359Z,10.55
2019-01-02T00:07:36.255Z,15.15
2019-01-02T00:10:05.495Z,12.10
2019-01-02T00:12:34.358Z,6.15
2019-01-02T00:15:03.550Z,14.10
2019-01-02T00:17:32.673Z,9.78
2019-01-02T00:20:01.862Z,16.27
2019-01-02T00:22:30.934Z,20.15
2019-01-02T00:25:00.222Z,18.87
2019-01-02T00:27:29.226Z,13.10
2019-01-02T00:29:58.319Z,16.55
2019-01-02T00:32:27.253Z,9.93
2019-01-02T00:34:56.624Z,6.40
2019-01-02T00:37:25.490Z,12.58
2019-01-02T00:39:54.636Z,13.95
2019-01-02T00:42:23.503Z,18.10
2019-01-02T00:44:52.389Z,15.08
2019-01-02T00:47:21.642Z,12.73
2019-01-02T00:49:50.587Z,10.32
2019-01-02T00:52:19.608Z,14.68
2019-01-02T00:54:48.483Z,8.40
2019-01-02T00:57:17.948Z,11.90
2019-01-02T00:59:47.599Z,12.30
2019-01-02T01:02:16.794Z,12.82
2019-01-02T01:04:45.950Z,17.40
2019-01-02T01:07:15.132Z,13.13
2019-01-02T01:09:44.575Z,15.08
2019-01-02T01:12:13.670Z,16.02
2019-01-02T01:14:43.080Z,13.55
2019-01-02T01:17:12.161Z,7.05
2019-01-02T01:19:41.345Z,19.85
2019-01-02T01:22:10.501Z,16.52
2019-01-02T01:24:39.391Z,13.43
2019-01-02T01:27:08.606Z,20.52
2019-01-02T01:29:37.463Z,19.27
2019-01-02T01:32:06.327Z,12.85
2019-01-02T01:34:35.423Z,16.93
2019-01-02T01:37:04.315Z,14.38
2019-01-02T01:39:33.656Z,15.20
2019-01-02T01:42:02.511Z,19.25
2019-01-02T01:44:31.263Z,9.83
2019-01-02T01:47:00.374Z,19.12
2019-01-02T01:49:29.211Z,19.62
2019-01-02T01:51:58.072Z,17.15
2019-01-02T01:54:26.849Z,14.55
2019-01-02T01:56:55.744Z,13.62
2019-01-02T01:59:24.961Z,14.23
2019-01-02T02:01:53.835Z,20.70
2019-01-02T02:04:22.640Z,20.10
2019-01-02T02:06:51.710Z,17.92
2019-01-02T02:09:20.534Z,16.07
2019-01-02T02:11:49.611Z,18.12
2019-01-02T02:14:18.442Z,21.35
2019-01-02T02:16:47.286Z,15.30
2019-01-02T02:19:16.661Z,20.95
2019-01-02T02:21:45.767Z,11.68
2019-01-02T02:24:14.665Z,23.65
2019-01-02T02:26:43.766Z,21.10
2019-01-02T02:29:12.591Z,16.67
2019-01-02T02:31:41.682Z,14.60
2019-01-02T02:34:10.574Z,13.10
2019-01-02T02:36:39.810Z,13.05
2019-01-02T02:39:10.092Z,21.95
2019-01-02T02:41:39.407Z,15.45
2019-01-02T02:44:08.670Z,13.60
2019-01-02T02:46:38.159Z,13.60
2019-01-02T02:49:07.079Z,12.73
2019-01-02T02:51:36.498Z,18.92
2019-01-02T02:54:05.780Z,17.37
2019-01-02T02:56:35.247Z,20.27
2019-01-02T02:59:04.663Z,17.45
2019-01-02T03:01:33.806Z,15.95
2019-01-02T03:04:03.005Z,18.62
2019-01-02T03:06:32.076Z,18.55
2019-01-02T03:09:01.210Z,12.53
2019-01-02T03:11:30.322Z,18.45
2019-01-02T03:13:59.625Z,12.95
2019-01-02T03:16:28.831Z,23.45
2019-01-02T03:18:58.067Z,15.53
2019-01-02T03:21:27.220Z,13.65
2019-01-02T03:23:56.871Z,19.25
2019-01-02T03:26:25.703Z,17.73
2019-01-02T03:28:54.597Z,16.07
2019-01-02T03:31:23.790Z,12.82
2019-01-02T03:33:53.216Z,19.07
2019-01-02T03:36:22.496Z,15.95
2019-01-02T03:38:51.331Z,23.77
2019-01-02T03:41:20.706Z,16.97
2019-01-02T03:43:49.562Z,16.85
2019-01-02T03:46:18.356Z,17.75
2019-01-02T03:48:47.194Z,11.53
2019-01-02T03:51:16.045Z,23.20
2019-01-02T03:53:44.896Z,23.52
2019-01-02T03:56:13.835Z,22.13
2019-01-02T03:58:42.734Z,12.75
2019-01-02T04:01:12.057Z,21.40
2019-01-02T04:03:40.892Z,17.42
2019-01-02T04:06:10.152Z,13.48
2019-01-02T04:08:39.048Z,20.27
2019-01-02T04:11:07.851Z,9.40
2019-01-02T04:13:36.652Z,17.17
2019-01-02T04:16:05.519Z,18.02
2019-01-02T04:18:34.446Z,14.95
2019-01-02T04:21:03.251Z,17.05
2019-01-02T04:23:32.315Z,24.98
2019-01-02T04:26:01.514Z,18.82
2019-01-02T04:28:30.499Z,18.98
2019-01-02T04:30:59.573Z,18.00
2019-01-02T04:33:28.606Z,22.22
2019-01-02T04:35:57.432Z,17.87
2019-01-02T04:38:26.246Z,22.27
2019-01-02T04:40:55.090Z,12.37
2019-01-02T04:43:24.457Z,15.00
2019-01-02T04:45:53.841Z,20.00
2019-01-02T04:48:23.153Z,15.32
2019-01-02T04:50:56.791Z,18.20
2019-01-02T04:53:25.630Z,24.47
2019-01-02T04:55:54.571Z,14.25
2019-01-02T04:58:23.418Z,18.60
2019-01-02T05:00:52.237Z,24.95
2019-01-02T05:03:21.284Z,14.40
2019-01-02T05:05:50.064Z,15.38
2019-01-02T05:08:19.172Z,10.48
2019-01-02T05:10:47.938Z,15.63
2019-01-02T05:13:16.727Z,15.90
2019-01-02T05:15:45.579Z,20.23
2019-01-02T05:18:14.433Z,19.42
2019-01-02T05:20:43.534Z,14.85
2019-01-02T05:23:12.404Z,21.12
2019-01-02T05:25:41.465Z,9.90
2019-01-02T05:28:10.571Z,24.95
2019-01-02T05:30:39.672Z,13.18
2019-01-02T05:33:08.498Z,22.30
2019-01-02T05:35:37.831Z,13.03
2019-01-02T05:38:06.640Z,21.00
2019-01-02T05:40:35.753Z,20.05
2019-01-02T05:43:04.840Z,15.70
2019-01-02T05:45:33.929Z,17.90
2019-01-02T05:48:03.112Z,21.10
2019-01-02T05:50:31.945Z,10.88
2019-01-02T05:53:00.947Z,16.32
2019-01-02T05:55:29.951Z,25.30
2019-01-02T05:57:58.687Z,12.30
2019-01-02T06:00:27.715Z,19.48
2019-01-02T06:02:56.568Z,12.58
2019-01-02T06:05:25.416Z,9.90
2019-01-02T06:07:54.191Z,17.07
2019-01-02T06:10:23.018Z,15.68
2019-01-02T06:12:51.777Z,16.62
2019-01-02T06:15:20.572Z,10.72
2019-01-02T06:17:49.663Z,13.58
2019-01-02T06:20:19.201Z,8.13
2019-01-02T06:22:48.271Z,12.13
2019-01-02T06:25:17.063Z,15.35
2019-01-02T06:27:46.035Z,8.08
2019-01-02T06:30:14.887Z,18.50
2019-01-02T06:32:43.761Z,9.93
2019-01-02T06:35:12.628Z,11.97
2019-01-02T06:37:41.513Z,11.22
2019-01-02T06:40:11.939Z,8.35
2019-01-02T06:42:40.686Z,9.38
2019-01-02T06:45:11.681Z,10.08
2019-01-02T06:47:40.768Z,13.70
2019-01-02T06:50:12.628Z,9.13
2019-01-02T06:52:41.376Z,13.98
2019-01-02T06:55:10.303Z,5.22
2019-01-02T06:57:39.032Z,14.25
2019-01-02T07:00:11.249Z,12.33
2019-01-02T07:02:40.175Z,16.57
2019-01-02T07:05:09.134Z,13.22
2019-01-02T07:07:38.039Z,6.45
2019-01-02T07:10:07.483Z,11.45
2019-01-02T07:12:36.587Z,7.17
2019-01-02T07:15:05.970Z,12.73
2019-01-02T07:17:34.856Z,7.80
2019-01-02T07:20:04.055Z,4.17
2019-01-02T07:22:33.078Z,11.97
2019-01-02T07:25:01.940Z,8.83
2019-01-02T07:27:30.701Z,10.60
2019-01-02T07:29:59.799Z,11.35
2019-01-02T07:32:28.549Z,9.38
2019-01-02T07:35:51.971Z,13.35
2019-01-02T07:38:59.196Z,9.95
2019-01-02T07:42:06.886Z,5.83
2019-01-02T07:45:04.037Z,9.68
2019-01-02T07:48:28.370Z,11.18
2019-01-02T07:51:37.613Z,7.30
2019-01-02T07:54:49.689Z,13.85
2019-01-02T07:58:10.776Z,5.55
2019-01-02T08:01:09.537Z,7.85
2019-01-02T08:04:13.965Z,6.10
2019-01-02T08:07:39.395Z,10.58
2019-01-02T08:10:59.102Z,9.45
2019-01-02T08:13:55.496Z,4.20
2019-01-02T08:17:02.644Z,4.30
2019-01-02T08:20:04.081Z,11.35
2019-01-02T08:22:55.823Z,3.85
2019-01-02T08:26:15.335Z,8.25
2019-01-02T08:29:25.050Z,4.92
2019-01-02T08:32:39.511Z,6.85
2019-01-02T08:35:48.504Z,8.68
2019-01-02T08:39:28.915Z,6.67
2019-01-02T08:42:39.034Z,4.25
2019-01-02T08:45:45.288Z,6.75
2019-01-02T08:48:46.932Z,4.97
2019-01-02T08:51:44.576Z,7.67
2019-01-02T08:54:44.823Z,6.22
2019-01-02T08:57:58.393Z,5.58
2019-01-02T09:00:58.636Z,6.00
2019-01-02T09:03:55.284Z,5.25
2019-01-02T09:06:55.372Z,2.70
2019-01-02T09:09:50.380Z,11.90
2019-01-02T09:12:50.912Z,10.82
2019-01-02T09:15:32.943Z,6.75
2019-01-02T09:18:20.424Z,3.70
2019-01-02T09:21:31.069Z,6.53
2019-01-02T09:24:59.262Z,3.83
2019-01-02T09:28:12.104Z,8.40
2019-01-02T09:30:59.358Z,6.87
2019-01-02T09:33:52.193Z,6.60
2019-01-02T09:36:50.321Z,8.05
2019-01-02T09:39:35.292Z,8.75
2019-01-02T09:42:30.067Z,11.95
2019-01-02T09:45:36.045Z,4.70
2019-01-02T09:48:41.460Z,5.33
2019-01-02T09:51:51.476Z,3.70
2019-01-02T09:55:01.333Z,5.65
2019-01-02T09:58:00.208Z,4.55
2019-01-02T10:00:56.717Z,5.05
2019-01-02T10:03:55.232Z,4.40
2019-01-02T10:07:04.316Z,7.15
2019-01-02T10:10:25.647Z,6.75
2019-01-02T10:13:50.581Z,2.77
2019-01-02T10:16:51.490Z,8.28
2019-01-02T10:19:51.333Z,5.62
2019-01-02T10:22:42.610Z,7.05
2019-01-02T10:26:06.689Z,7.53
2019-01-02T10:29:12.021Z,5.90
2019-01-02T10:32:22.444Z,5.72
2019-01-02T10:35:02.852Z,9.25
2019-01-02T10:38:07.072Z,6.37
2019-01-02T10:41:07.640Z,8.23
2019-01-02T10:44:07.774Z,3.45
2019-01-02T10:46:57.527Z,3.27
2019-01-02T10:50:01.345Z,6.67
2019-01-02T10:53:04.588Z,5.12
2019-01-02T10:56:08.277Z,9.58
2019-01-02T10:58:48.753Z,8.08
2019-01-02T11:01:48.950Z,4.03
2019-01-02T11:04:48.115Z,6.45
2019-01-02T11:08:13.602Z,9.40
2019-01-02T11:11:38.700Z,3.95
2019-01-02T11:14:35.498Z,13.30
2019-01-02T11:17:41.601Z,6.25
2019-01-02T11:20:53.155Z,7.10
2019-01-02T11:24:00.529Z,4.70
2019-01-02T11:27:06.446Z,3.25
2019-01-02T11:30:28.903Z,3.33
2019-01-02T11:33:26.483Z,3.45
2019-01-02T11:36:31.366Z,1.62
2019-01-02T11:39:19.742Z,2.90
2019-01-02T11:42:15.240Z,3.55
2019-01-02T11:45:08.455Z,4.33
2019-01-02T11:47:37.296Z,1.87
2019-01-02T11:50:08.950Z,3.12
2019-01-02T11:52:37.981Z,1.90
2019-01-02T11:55:07.600Z,4.75
2019-01-02T11:57:36.420Z,1.70
2019-01-02T12:00:07.506Z,2.70
2019-01-02T12:02:36.503Z,2.95
2019-01-02T12:05:05.537Z,2.10
2019-01-02T12:07:35.078Z,4.60
2019-01-02T12:10:04.649Z,3.92
2019-01-02T12:12:33.437Z,5.05
2019-01-02T12:15:02.326Z,2.95
2019-01-02T12:17:31.158Z,2.87
2019-01-02T12:20:00.827Z,3.05
2019-01-02T12:22:29.681Z,2.12
2019-01-02T12:24:58.480Z,2.20
2019-01-02T12:27:27.435Z,2.65
2019-01-02T12:29:56.322Z,3.02
2019-01-02T12:32:25.436Z,2.65
2019-01-02T12:34:54.407Z,1.67
2019-01-02T12:37:23.299Z,2.42
2019-01-02T12:39:52.452Z,1.62
2019-01-02T12:42:21.230Z,1.77
2019-01-02T12:44:50.044Z,2.95
2019-01-02T12:47:19.091Z,1.42
2019-01-02T12:49:47.864Z,2.20
2019-01-02T12:52:16.996Z,2.10
2019-01-02T12:54:45.925Z,3.80
2019-01-02T12:57:15.164Z,2.30
2019-01-02T12:59:44.083Z,2.85
2019-01-02T13:02:27.577Z,1.27
2019-01-02T13:05:26.614Z,3.47
2019-01-02T13:08:15.242Z,2.02
2019-01-02T13:11:25.842Z,1.80
2019-01-02T13:14:35.156Z,1.95
2019-01-02T13:17:24.829Z,2.25
2019-01-02T13:20:31.363Z,1.45
2019-01-02T13:23:11.416Z,3.60
2019-01-02T13:26:11.139Z,2.27
2019-01-02T13:28:54.508Z,4.40
2019-01-02T13:31:41.215Z,3.72
2019-01-02T13:34:43.995Z,4.37
2019-01-02T13:37:19.441Z,5.47
2019-01-02T13:40:16.703Z,2.50
2019-01-02T13:43:02.308Z,3.62
2019-01-02T13:45:40.503Z,4.87
2019-01-02T13:48:44.051Z,6.25
2019-01-02T13:51:30.064Z,2.45
2019-01-02T13:53:58.941Z,4.28
2019-01-02T13:56:28.358Z,3.00
2019-01-02T13:58:57.274Z,3.00
2019-01-02T14:01:26.261Z,2.85
2019-01-02T14:03:58.461Z,1.70
2019-01-02T14:06:27.572Z,1.98
2019-01-02T14:08:56.452Z,2.75
2019-01-02T14:11:25.268Z,2.77
2019-01-02T14:13:54.479Z,2.98
2019-01-02T14:16:23.376Z,3.10
2019-01-02T14:18:52.928Z,5.12
2019-01-02T14:21:21.717Z,4.12
2019-01-02T14:23:50.490Z,3.05
2019-01-02T14:26:19.370Z,4.20
2019-01-02T14:28:48.177Z,3.22
2019-01-02T14:31:17.038Z,3.75
2019-01-02T14:33:56.215Z,4.92
2019-01-02T14:36:27.664Z,6.75
2019-01-02T14:38:57.460Z,2.33
2019-01-02T14:41:27.310Z,3.70
2019-01-02T14:43:56.458Z,5.03
2019-01-02T14:46:25.351Z,4.10
2019-01-02T14:48:54.599Z,5.17
2019-01-02T14:51:23.448Z,7.28
2019-01-02T14:53:52.451Z,5.03
2019-01-02T14:56:21.297Z,3.90
2019-01-02T14:58:50.688Z,3.35
2019-01-02T15:01:19.465Z,3.02
2019-01-02T15:03:48.235Z,3.60
2019-01-02T15:06:17.111Z,3.35
2019-01-02T15:08:46.408Z,8.10
2019-01-02T15:11:15.260Z,11.15
2019-01-02T15:13:44.294Z,5.92
2019-01-02T15:16:13.283Z,6.45
2019-01-02T15:18:42.043Z,7.15
2019-01-02T15:21:10.864Z,3.42
2019-01-02T15:23:39.646Z,4.80
2019-01-02T15:26:08.467Z,2.75
2019-01-02T15:28:37.323Z,2.37
2019-01-02T15:31:06.435Z,4.33
2019-01-02T15:33:35.300Z,3.40
2019-01-02T15:36:04.529Z,3.85
2019-01-02T15:38:33.399Z,4.05
2019-01-02T15:41:02.358Z,3.05
2019-01-02T15:43:31.729Z,3.27
2019-01-02T15:46:01.213Z,5.95
2019-01-02T15:48:31.453Z,2.08
2019-01-02T15:51:00.617Z,3.72
2019-01-02T15:53:29.574Z,3.15
2019-01-02T15:55:58.420Z,2.33
2019-01-02T15:58:27.745Z,3.35
2019-01-02T16:00:57.071Z,2.75
2019-01-02T16:03:26.004Z,2.62
2019-01-02T16:05:55.175Z,3.20
2019-01-02T16:08:24.395Z,4.20
2019-01-02T16:10:53.203Z,3.20
2019-01-02T16:13:21.991Z,3.45
2019-01-02T16:15:50.901Z,3.58
2019-01-02T16:18:19.792Z,4.72
2019-01-02T16:20:48.662Z,3.60
2019-01-02T16:23:17.697Z,4.90
2019-01-02T16:25:46.762Z,3.75
2019-01-02T16:28:15.573Z,5.42
2019-01-02T16:30:44.606Z,10.68
2019-01-02T16:33:13.716Z,8.80
2019-01-02T16:35:42.507Z,8.10
2019-01-02T16:38:11.315Z,5.42
2019-01-02T16:40:40.140Z,7.58
2019-01-02T16:43:09.353Z,4.33
2019-01-02T16:45:38.149Z,2.33
2019-01-02T16:48:07.173Z,2.35
2019-01-02T16:50:36.567Z,1.92
2019-01-02T16:53:05.354Z,3.98
2019-01-02T16:55:34.406Z,2.27
2019-01-02T16:58:03.243Z,5.97
2019-01-02T17:00:32.418Z,2.47
2019-01-02T17:03:01.195Z,3.50
2019-01-02T17:05:29.995Z,8.08
2019-01-02T17:07:59.039Z,3.60
2019-01-02T17:10:28.197Z,4.85
2019-01-02T17:12:57.682Z,2.30
2019-01-02T17:15:30.408Z,3.77
2019-01-02T17:17:59.513Z,2.37
2019-01-02T17:20:28.329Z,5.85
2019-01-02T17:22:57.124Z,4.85
2019-01-02T17:25:25.976Z,5.55
2019-01-02T17:27:55.234Z,5.17
2019-01-02T17:30:24.050Z,5.95
2019-01-02T17:32:53.481Z,4.42
2019-01-02T17:35:22.403Z,5.70
2019-01-02T17:37:51.263Z,2.50
2019-01-02T17:40:20.331Z,6.12
2019-01-02T17:42:49.531Z,2.98
2019-01-02T17:45:18.307Z,4.42
2019-01-02T17:47:47.329Z,4.12
2019-01-02T17:50:16.159Z,3.58
2019-01-02T17:52:45.346Z,5.62
2019-01-02T17:55:14.210Z,2.92
2019-01-02T17:57:48.457Z,2.55
2019-01-02T18:00:17.793Z,3.33
2019-01-02T18:02:46.600Z,5.00
2019-01-02T18:05:15.699Z,7.42
2019-01-02T18:07:44.882Z,5.90
2019-01-02T18:10:13.952Z,3.83
2019-01-02T18:12:44.168Z,5.75
2019-01-02T18:15:12.932Z,2.87
2019-01-02T18:17:41.707Z,6.03
2019-01-02T18:20:10.794Z,7.62
2019-01-02T18:22:39.861Z,6.90
2019-01-02T18:25:08.652Z,4.92
2019-01-02T18:27:37.675Z,7.10
2019-01-02T18:30:09.066Z,4.70
2019-01-02T18:32:37.944Z,3.87
2019-01-02T18:35:08.854Z,5.47
2019-01-02T18:37:37.377Z,6.10
2019-01-02T18:40:06.339Z,5.50
2019-01-02T18:42:35.094Z,4.78
2019-01-02T18:45:03.946Z,5.70
2019-01-02T18:47:33.206Z,7.67
2019-01-02T18:50:02.005Z,4.05
2019-01-02T18:52:30.791Z,4.60
2019-01-02T18:54:59.628Z,9.23
2019-01-02T18:57:28.407Z,8.78
2019-01-02T18:59:57.559Z,8.08
2019-01-02T19:02:26.436Z,5.00
2019-01-02T19:04:55.312Z,2.65
2019-01-02T19:07:24.312Z,4.10
2019-01-02T19:09:53.367Z,4.90
2019-01-02T19:12:22.190Z,3.87
2019-01-02T19:14:51.316Z,1.92
2019-01-02T19:17:20.091Z,8.48
2019-01-02T19:19:48.936Z,3.42
2019-01-02T19:22:17.913Z,4.22
2019-01-02T19:24:47.077Z,3.02
2019-01-02T19:27:16.162Z,8.03
2019-01-02T19:29:44.952Z,7.28
2019-01-02T19:32:13.844Z,3.72
2019-01-02T19:34:43.097Z,2.17
2019-01-02T19:37:11.887Z,2.15
2019-01-02T19:39:40.621Z,1.85
2019-01-02T19:42:09.764Z,4.20
2019-01-02T19:44:38.666Z,5.22
2019-01-02T19:47:07.769Z,6.15
2019-01-02T19:49:36.771Z,1.92
2019-01-02T19:52:05.598Z,2.80
2019-01-02T19:54:34.751Z,2.27
2019-01-02T19:57:03.719Z,4.20
2019-01-02T19:59:32.575Z,2.95
2019-01-02T20:02:01.356Z,2.25
2019-01-02T20:04:30.640Z,5.15
2019-01-02T20:06:59.558Z,4.08
2019-01-02T20:09:28.344Z,7.60
2019-01-02T20:11:57.443Z,2.83
2019-01-02T20:14:26.372Z,3.37
2019-01-02T20:16:55.403Z,4.15
2019-01-02T20:19:24.263Z,3.47
2019-01-02T20:21:53.149Z,5.83
2019-01-02T20:24:22.125Z,8.45
2019-01-02T20:26:55.406Z,3.37
2019-01-02T20:29:22.018Z,2.58
2019-01-02T20:31:51.205Z,4.08
2019-01-02T20:34:20.215Z,3.08
2019-01-02T20:36:49.112Z,2.98
2019-01-02T20:39:18.553Z,4.20
2019-01-02T20:41:47.843Z,1.85
2019-01-02T20:44:16.687Z,3.30
2019-01-02T20:46:45.524Z,2.42
2019-01-02T20:49:14.342Z,4.00
2019-01-02T20:51:43.290Z,2.60
2019-01-02T20:54:12.334Z,2.02
2019-01-02T20:56:41.361Z,2.17
2019-01-02T20:59:10.463Z,1.22
2019-01-02T21:01:39.775Z,2.58
2019-01-02T21:04:08.707Z,3.62
2019-01-02T21:06:37.558Z,2.27
2019-01-02T21:09:08.312Z,1.85
2019-01-02T21:11:37.175Z,4.42
2019-01-02T21:14:06.221Z,2.22
2019-01-02T21:16:35.080Z,2.58
2019-01-02T21:19:04.073Z,4.00
2019-01-02T21:21:33.146Z,1.92
2019-01-02T21:24:02.183Z,1.65
2019-01-02T21:26:31.380Z,3.70
2019-01-02T21:29:00.472Z,2.12
2019-01-02T21:31:29.699Z,4.03
2019-01-02T21:33:58.617Z,4.85
2019-01-02T21:36:27.614Z,7.00
2019-01-02T21:38:56.404Z,2.50
2019-01-02T21:41:25.674Z,2.15
2019-01-02T21:43:54.582Z,2.20
2019-01-02T21:46:23.365Z,1.67
2019-01-02T21:48:52.435Z,1.85
2019-01-02T21:51:21.258Z,2.12
2019-01-02T21:53:50.051Z,1.60
2019-01-02T21:56:18.847Z,3.83
2019-01-02T21:58:47.658Z,3.35
2019-01-02T22:01:16.811Z,2.37
2019-01-02T22:03:45.883Z,2.30
2019-01-02T22:06:14.762Z,2.60
2019-01-02T22:08:43.736Z,3.55
2019-01-02T22:11:12.889Z,6.45
2019-01-02T22:13:41.930Z,3.37
2019-01-02T22:16:10.764Z,2.85
2019-01-02T22:18:39.571Z,7.62
2019-01-02T22:21:08.809Z,7.15
2019-01-02T22:23:37.783Z,3.50
2019-01-02T22:26:06.900Z,3.05
2019-01-02T22:28:35.710Z,2.83
2019-01-02T22:31:04.563Z,2.40
2019-01-02T22:33:33.486Z,2.45
2019-01-02T22:36:02.295Z,4.92
2019-01-02T22:38:31.126Z,4.20
2019-01-02T22:41:00.174Z,4.58
2019-01-02T22:43:29.101Z,2.45
2019-01-02T22:45:57.950Z,2.05
2019-01-02T22:51:04.941Z,5.75
2019-01-02T22:54:22.650Z,3.42
2019-01-02T22:56:59.989Z,3.22
2019-01-02T22:59:32.502Z,6.40
2019-01-02T23:03:03.726Z,2.08
2019-01-02T23:05:44.880Z,5.30
2019-01-02T23:08:38.198Z,7.15
2019-01-02T23:11:38.463Z,3.58
2019-01-02T23:14:46.009Z,4.87
2019-01-02T23:17:55.349Z,3.58
2019-01-02T23:20:52.352Z,7.80
2019-01-02T23:23:42.112Z,5.25
2019-01-02T23:26:44.315Z,2.50
2019-01-02T23:29:47.964Z,3.15
2019-01-02T23:32:48.939Z,2.60
2019-01-02T23:36:27.532Z,6.35
2019-01-02T23:39:23.277Z,4.83
2019-01-02T23:42:13.173Z,3.58
2019-01-02T23:45:10.784Z,4.50
2019-01-02T23:48:31.009Z,3.85
2019-01-02T23:55:46.831Z,2.12
2019-01-02T23:59:05.123Z,3.25
